Time;durP1;ratioP1;P1;durP2;ratioP2;P2;SDS_P1;SDS_P2;PMS_P1;PMS_P2;Temp;Humidity;BMP_temperature;BMP_pressure;BME280_temperature;BME280_humidity;BME280_pressure;Samples;Min_cycle;Max_cycle;Signal;HPM_P1;HPM_P2
2022/09/27 00:02:18;;;;;;;10.93;8.00;;;;;;;-141.28;100.00;47832.50;5104800;28;20255;-75
2022/09/27 00:04:45;;;;;;;10.93;7.90;;;;;;;-141.28;100.00;47838.41;5110406;28;20219;-74
2022/09/27 00:07:13;;;;;;;9.87;7.83;;;;;;;-141.28;100.00;47824.66;5104692;28;20198;-75
2022/09/27 00:09:40;;;;;;;9.70;8.63;;;;;;;-141.28;100.00;47826.63;5096346;28;20272;-75
2022/09/27 00:12:07;;;;;;;9.40;7.87;;;;;;;-141.28;100.00;47814.84;5093551;28;20697;-76
2022/09/27 00:14:34;;;;;;;12.50;8.27;;;;;;;-141.28;100.00;47822.72;5093767;28;20200;-77
2022/09/27 00:17:02;;;;;;;8.87;7.97;;;;;;;-141.28;100.00;47810.94;5094163;28;20199;-74
2022/09/27 00:19:31;;;;;;;12.07;8.80;;;;;;;-141.28;100.00;47814.84;5099980;28;20191;-75
2022/09/27 00:22:00;;;;;;;14.60;8.57;;;;;;;-141.28;100.00;47805.06;5103216;28;20568;-77
2022/09/27 00:24:27;;;;;;;10.03;8.50;;;;;;;-141.28;100.00;47799.16;5080254;28;20222;-75
2022/09/27 00:26:55;;;;;;;10.77;8.90;;;;;;;-141.28;100.00;47799.16;5080580;28;20744;-74
2022/09/27 00:29:23;;;;;;;11.53;9.50;;;;;;;-141.28;100.00;47787.41;5102506;28;20202;-76
2022/09/27 00:31:52;;;;;;;10.00;8.80;;;;;;;-141.28;100.00;47785.44;5079761;28;20211;-75
2022/09/27 00:34:22;;;;;;;12.90;9.27;;;;;;;-141.28;100.00;47781.50;5105542;28;20631;-75
2022/09/27 00:36:49;;;;;;;10.97;8.73;;;;;;;-141.28;100.00;47781.50;5106516;28;20202;-78
2022/09/27 00:39:16;;;;;;;12.20;8.60;;;;;;;-141.28;100.00;47777.59;5106110;28;20293;-77
2022/09/27 00:41:45;;;;;;;9.07;7.40;;;;;;;-141.28;100.00;47775.63;5072692;28;20196;-76
2022/09/27 00:44:51;;;;;;;9.63;7.53;;;;;;;-141.28;100.00;47771.72;5073260;28;20219;-75
2022/09/27 00:47:25;;;;;;;11.50;7.77;;;;;;;-141.28;100.00;47775.63;5072541;28;20649;-74
2022/09/27 00:49:59;;;;;;;9.17;7.00;;;;;;;-141.28;100.00;47763.88;5107084;28;20194;-77
2022/09/27 00:52:29;;;;;;;9.77;7.53;;;;;;;-141.28;100.00;47767.78;5097537;28;20234;-76
2022/09/27 00:55:11;;;;;;;10.97;7.93;;;;;;;-141.28;100.00;47765.81;5088928;28;20196;-75
2022/09/27 00:57:39;;;;;;;10.73;7.80;;;;;;;-141.28;100.00;47759.94;5094074;28;20285;-76
2022/09/27 01:00:09;;;;;;;9.37;7.93;;;;;;;-141.28;100.00;47756.03;5118036;28;20199;-75
2022/09/27 01:02:38;;;;;;;9.30;8.23;;;;;;;-141.28;100.00;47756.03;5115996;28;20207;-74
2022/09/27 01:05:10;;;;;;;10.60;7.90;;;;;;;-141.28;100.00;47756.03;5086012;28;20279;-75
2022/09/27 01:07:37;;;;;;;10.57;7.87;;;;;;;-141.28;100.00;47756.03;5104077;28;20207;-76
2022/09/27 01:10:06;;;;;;;12.17;7.83;;;;;;;-141.28;100.00;47759.94;5107302;28;20572;-76
2022/09/27 01:12:45;;;;;;;9.33;8.13;;;;;;;-141.28;100.00;47759.94;5105680;28;20314;-74
2022/09/27 01:15:23;;;;;;;13.63;7.90;;;;;;;-141.28;100.00;47757.97;5112085;28;20188;-76
2022/09/27 01:18:05;;;;;;;10.03;8.37;;;;;;;-141.28;100.00;47752.09;5100686;28;20328;-76
2022/09/27 01:21:07;;;;;;;10.67;8.27;;;;;;;-141.28;100.00;47756.03;5115735;28;20195;-76
2022/09/27 01:24:11;;;;;;;10.43;7.93;;;;;;;-141.28;100.00;47744.25;5085645;28;20223;-77
2022/09/27 01:26:58;;;;;;;10.03;8.00;;;;;;;-141.28;100.00;47740.34;5099536;28;20271;-75
2022/09/27 01:29:35;;;;;;;11.37;8.13;;;;;;;-141.28;100.00;47732.50;5097100;28;20196;-76
2022/09/27 01:32:07;;;;;;;12.97;8.53;;;;;;;-141.28;100.00;47736.41;5092338;28;20196;-76
2022/09/27 01:34:43;;;;;;;11.43;7.93;;;;;;;-141.28;100.00;47728.56;5103835;28;20260;-76
2022/09/27 01:37:21;;;;;;;13.13;9.13;;;;;;;-141.28;100.00;47732.50;5115709;28;20658;-75
2022/09/27 01:39:55;;;;;;;13.20;8.63;;;;;;;-141.28;100.00;47730.53;5094519;28;20196;-75
2022/09/27 01:42:27;;;;;;;10.57;7.87;;;;;;;-141.28;100.00;47724.63;5085891;28;20314;-76
2022/09/27 01:45:01;;;;;;;16.20;8.67;;;;;;;-141.28;100.00;47724.63;5068333;28;20235;-75
2022/09/27 01:47:35;;;;;;;10.70;8.17;;;;;;;-141.28;100.00;47722.69;5090158;28;20274;-77
2022/09/27 01:50:07;;;;;;;10.73;8.67;;;;;;;-141.28;100.00;47720.72;5095606;28;20195;-75
2022/09/27 01:52:39;;;;;;;13.40;8.70;;;;;;;-141.28;100.00;47720.72;5094045;28;20216;-75
2022/09/27 01:55:10;;;;;;;9.87;8.57;;;;;;;-141.28;100.00;47720.72;5102935;28;20192;-75
2022/09/27 01:57:41;;;;;;;9.87;7.53;;;;;;;-141.28;100.00;47720.72;5104310;28;20202;-75
2022/09/27 02:00:09;;;;;;;10.50;8.03;;;;;;;-141.28;100.00;47722.69;5107875;28;20215;-76
2022/09/27 02:02:44;;;;;;;10.07;8.00;;;;;;;-141.28;100.00;47724.63;5126687;28;20650;-75
2022/09/27 02:05:16;;;;;;;11.23;8.13;;;;;;;-141.28;100.00;47718.75;5104300;28;20280;-75
2022/09/27 02:07:49;;;;;;;11.13;8.63;;;;;;;-141.28;100.00;47720.72;5099538;28;20207;-74
2022/09/27 02:10:20;;;;;;;11.37;8.77;;;;;;;-141.28;100.00;47718.75;5092058;28;20202;-76
2022/09/27 02:12:52;;;;;;;12.93;8.97;;;;;;;-141.28;100.00;47720.72;5087980;28;20647;-76
2022/09/27 02:15:20;;;;;;;13.97;9.23;;;;;;;-141.28;100.00;47716.78;5097852;28;20675;-77
2022/09/27 02:17:57;;;;;;;14.97;8.53;;;;;;;-141.28;100.00;47712.88;5098885;28;20244;-74
2022/09/27 02:20:30;;;;;;;10.07;8.33;;;;;;;-141.28;100.00;47712.88;5099693;28;20203;-77
2022/09/27 02:23:09;;;;;;;12.20;8.97;;;;;;;-141.28;100.00;47716.78;5100342;28;20259;-77
2022/09/27 02:25:42;;;;;;;12.60;9.20;;;;;;;-141.28;100.00;47712.88;5110511;28;20538;-75
2022/09/27 02:28:23;;;;;;;12.97;8.43;;;;;;;-141.28;100.00;47712.88;5111004;28;20198;-77
2022/09/27 02:30:51;;;;;;;10.77;8.57;;;;;;;-141.28;100.00;47708.94;5087089;28;20627;-77
2022/09/27 02:33:23;;;;;;;12.50;9.03;;;;;;;-141.28;100.00;47708.94;5072492;28;20262;-78
2022/09/27 02:35:50;;;;;;;12.20;9.10;;;;;;;-141.28;100.00;47705.03;5079874;28;20199;-77
2022/09/27 02:38:20;;;;;;;14.40;9.17;;;;;;;-141.28;100.00;47705.03;5097078;28;20202;-77
2022/09/27 02:40:47;;;;;;;11.80;10.00;;;;;;;-141.28;100.00;47707.00;5099528;28;20195;-76
2022/09/27 02:43:18;;;;;;;14.67;10.23;;;;;;;-141.28;100.00;47707.00;5107428;28;20255;-75
2022/09/27 02:46:09;;;;;;;13.07;9.70;;;;;;;-141.28;100.00;47705.03;5112467;28;20672;-76
2022/09/27 02:48:45;;;;;;;12.23;10.27;;;;;;;-141.28;100.00;47701.09;5079766;28;20199;-76
2022/09/27 02:51:34;;;;;;;16.10;9.97;;;;;;;-141.28;100.00;47701.09;5078248;28;20691;-76
2022/09/27 02:54:12;;;;;;;13.67;10.07;;;;;;;-141.28;100.00;47701.09;5102231;28;20264;-77
2022/09/27 02:56:51;;;;;;;16.27;9.90;;;;;;;-141.28;100.00;47697.19;5105268;28;20286;-76
2022/09/27 02:59:28;;;;;;;13.90;9.63;;;;;;;-141.28;100.00;47701.09;5104900;28;20307;-77
2022/09/27 03:02:04;;;;;;;14.40;9.07;;;;;;;-141.28;100.00;47697.19;5112277;28;20203;-76
2022/09/27 03:04:37;;;;;;;14.10;9.70;;;;;;;-141.28;100.00;47689.34;5109399;28;20226;-77
2022/09/27 03:07:05;;;;;;;11.80;9.60;;;;;;;-141.28;100.00;47695.22;5107069;28;20195;-76
2022/09/27 03:09:41;;;;;;;14.33;10.10;;;;;;;-141.28;100.00;47689.34;5115495;28;20226;-76
2022/09/27 03:12:08;;;;;;;12.23;10.43;;;;;;;-141.28;100.00;47691.31;5115875;28;20250;-78
2022/09/27 03:14:37;;;;;;;13.80;10.40;;;;;;;-141.28;100.00;47689.34;5101259;28;20205;-77
2022/09/27 03:17:04;;;;;;;15.63;10.00;;;;;;;-141.28;100.00;47693.25;5114342;28;20191;-77
2022/09/27 03:19:33;;;;;;;15.63;11.67;;;;;;;-141.28;100.00;47701.09;5107021;28;20199;-75
2022/09/27 03:22:00;;;;;;;13.83;10.20;;;;;;;-141.28;100.00;47695.22;5106282;28;20259;-76
2022/09/27 03:24:26;;;;;;;12.03;10.13;;;;;;;-141.28;100.00;47697.19;5106481;28;20211;-75
2022/09/27 03:26:53;;;;;;;14.00;9.80;;;;;;;-141.28;100.00;47701.09;5092951;28;20199;-77
2022/09/27 03:29:23;;;;;;;12.90;10.13;;;;;;;-141.28;100.00;47699.16;5114740;28;20199;-75
2022/09/27 03:31:51;;;;;;;14.00;9.97;;;;;;;-141.28;100.00;47701.09;5086672;28;20197;-75
2022/09/27 03:34:18;;;;;;;13.80;9.90;;;;;;;-141.28;100.00;47695.22;5082526;28;20203;-76
2022/09/27 03:36:47;;;;;;;11.17;9.43;;;;;;;-141.28;100.00;47693.25;5065516;28;20202;-76
2022/09/27 03:39:13;;;;;;;14.13;9.97;;;;;;;-141.28;100.00;47693.25;5088053;28;20222;-74
2022/09/27 03:41:41;;;;;;;12.90;9.77;;;;;;;-141.28;100.00;47705.03;5075912;28;20528;-76
2022/09/27 03:44:09;;;;;;;14.70;11.00;;;;;;;-141.28;100.00;47699.16;5076656;28;20646;-76
2022/09/27 03:46:37;;;;;;;16.07;10.40;;;;;;;-141.28;100.00;47697.19;5080789;28;20222;-76
2022/09/27 03:49:04;;;;;;;16.73;11.10;;;;;;;-141.28;100.00;47701.09;5086469;28;20204;-76
2022/09/27 03:51:32;;;;;;;13.63;11.13;;;;;;;-141.28;100.00;47705.03;5094123;28;20264;-76
2022/09/27 03:54:02;;;;;;;16.27;11.17;;;;;;;-141.28;100.00;47697.19;5086136;28;20211;-76
2022/09/27 03:56:31;;;;;;;14.33;11.30;;;;;;;-141.28;100.00;47701.09;5084896;28;20206;-76
2022/09/27 03:58:58;;;;;;;12.90;11.13;;;;;;;-141.28;100.00;47707.00;5087012;28;20633;-75
2022/09/27 04:01:26;;;;;;;16.17;10.97;;;;;;;-141.28;100.00;47705.03;5080688;28;20196;-75
2022/09/27 04:03:55;;;;;;;16.30;11.97;;;;;;;-141.28;100.00;47705.03;5087318;28;20664;-75
2022/09/27 04:06:22;;;;;;;15.53;11.27;;;;;;;-141.28;100.00;47705.03;5078477;28;20192;-75
2022/09/27 04:08:49;;;;;;;17.10;11.33;;;;;;;-141.28;100.00;47708.94;5075795;28;20205;-75
2022/09/27 04:11:18;;;;;;;12.20;10.93;;;;;;;-141.28;100.00;47708.94;5060101;28;20647;-77
2022/09/27 04:13:48;;;;;;;15.17;12.30;;;;;;;-141.28;100.00;47716.78;5088296;28;20252;-76
2022/09/27 04:16:15;;;;;;;17.60;12.93;;;;;;;-141.28;100.00;47712.88;5081571;28;20279;-79
2022/09/27 04:18:44;;;;;;;18.97;12.53;;;;;;;-141.28;100.00;47708.94;5095357;28;20207;-76
2022/09/27 04:21:11;;;;;;;16.33;12.57;;;;;;;-141.28;100.00;47714.84;5096102;28;20573;-76
2022/09/27 04:23:40;;;;;;;16.50;13.47;;;;;;;-141.28;100.00;47705.03;5083064;28;20622;-76
2022/09/27 04:26:08;;;;;;;15.40;13.40;;;;;;;-141.28;100.00;47712.88;5087692;28;20269;-76
2022/09/27 04:28:36;;;;;;;15.20;13.07;;;;;;;-141.28;100.00;47708.94;5077045;28;20196;-77
2022/09/27 04:31:04;;;;;;;15.67;12.60;;;;;;;-141.28;100.00;47708.94;5077505;28;20200;-76
2022/09/27 04:33:32;;;;;;;16.27;12.93;;;;;;;-141.28;100.00;47724.63;5101471;28;20272;-76
2022/09/27 04:38:44;;;;;;;17.57;12.97;;;;;;;-141.28;100.00;47718.75;5078777;28;20207;-77
2022/09/27 04:41:12;;;;;;;18.60;12.83;;;;;;;-141.28;100.00;47714.84;5092174;28;20671;-75
2022/09/27 04:43:41;;;;;;;30.17;20.67;;;;;;;-141.28;100.00;47716.78;5109985;28;20573;-74
2022/09/27 04:46:08;;;;;;;19.03;14.60;;;;;;;-141.28;100.00;47720.72;5101717;28;20275;-74
2022/09/27 04:48:36;;;;;;;17.27;13.27;;;;;;;-141.28;100.00;47708.94;5106258;28;20191;-77
2022/09/27 04:51:05;;;;;;;17.47;13.57;;;;;;;-141.28;100.00;47714.84;5093271;28;20650;-76
2022/09/27 04:53:32;;;;;;;19.23;12.77;;;;;;;-141.28;100.00;47720.72;5104795;28;20198;-75
2022/09/27 04:56:04;;;;;;;15.23;12.57;;;;;;;-141.28;100.00;47716.78;5093530;28;20196;-76
2022/09/27 04:58:34;;;;;;;15.53;12.27;;;;;;;-141.28;100.00;47728.56;5105390;28;20203;-77
2022/09/27 05:01:03;;;;;;;16.77;12.63;;;;;;;-141.28;100.00;47720.72;5091963;28;20192;-75
2022/09/27 05:03:30;;;;;;;16.23;12.37;;;;;;;-141.28;100.00;47720.72;5091956;28;20702;-76
2022/09/27 05:05:57;;;;;;;14.80;11.97;;;;;;;-141.28;100.00;47724.63;5080114;28;20231;-75
2022/09/27 05:08:25;;;;;;;17.10;12.70;;;;;;;-141.28;100.00;47722.69;5106039;28;20598;-75
2022/09/27 05:10:52;;;;;;;15.63;13.03;;;;;;;-141.28;100.00;47728.56;5105130;28;20666;-74
2022/09/27 05:13:19;;;;;;;14.03;12.40;;;;;;;-141.28;100.00;47718.75;5105656;28;20579;-76
2022/09/27 05:15:46;;;;;;;20.07;14.27;;;;;;;-141.28;100.00;47726.59;5100674;28;20207;-78
2022/09/27 05:18:14;;;;;;;18.87;14.20;;;;;;;-141.28;100.00;47724.63;5111502;28;20681;-76
2022/09/27 05:20:41;;;;;;;17.20;12.97;;;;;;;-141.28;100.00;47728.56;5103711;28;20192;-76
2022/09/27 05:23:09;;;;;;;18.50;12.57;;;;;;;-141.28;100.00;47732.50;5093176;28;20244;-77
2022/09/27 05:25:36;;;;;;;16.83;12.73;;;;;;;-141.28;100.00;47724.63;5112748;28;20291;-77
2022/09/27 05:28:05;;;;;;;17.73;12.57;;;;;;;-141.28;100.00;47728.56;5094556;28;20626;-77
2022/09/27 05:30:31;;;;;;;15.37;12.17;;;;;;;-141.28;100.00;47720.72;5095271;28;20668;-75
2022/09/27 05:32:58;;;;;;;15.43;12.27;;;;;;;-141.28;100.00;47732.50;5092890;28;20199;-78
2022/09/27 05:35:28;;;;;;;16.10;12.37;;;;;;;-141.28;100.00;47728.56;5095073;28;20196;-76
2022/09/27 05:37:58;;;;;;;15.60;11.43;;;;;;;-141.28;100.00;47726.59;5103145;28;20202;-77
2022/09/27 05:40:25;;;;;;;16.57;12.37;;;;;;;-141.28;100.00;47736.41;5103339;28;20206;-77
2022/09/27 05:42:53;;;;;;;18.03;12.33;;;;;;;-141.28;100.00;47728.56;5095477;28;20211;-76
2022/09/27 05:45:21;;;;;;;17.53;12.30;;;;;;;-141.28;100.00;47734.44;5098454;28;20222;-77
2022/09/27 05:48:38;;;;;;;18.57;13.03;;;;;;;-141.28;100.00;47732.50;5112216;28;20194;-77
2022/09/27 05:51:07;;;;;;;16.60;13.47;;;;;;;-141.28;100.00;47748.19;5089334;28;20294;-76
2022/09/27 05:53:35;;;;;;;19.93;13.10;;;;;;;-141.28;100.00;47738.38;5093602;28;20287;-76
2022/09/27 05:56:03;;;;;;;19.67;12.93;;;;;;;-141.28;100.00;47734.44;5103049;28;20207;-75
2022/09/27 05:58:31;;;;;;;24.70;14.50;;;;;;;-141.28;100.00;47740.34;5076086;28;20211;-77
2022/09/27 06:00:58;;;;;;;22.33;14.87;;;;;;;-141.28;100.00;47736.41;5092689;28;20200;-75
2022/09/27 06:03:26;;;;;;;22.67;15.47;;;;;;;-141.28;100.00;47734.44;5088159;28;20650;-75
2022/09/27 06:05:53;;;;;;;21.67;15.27;;;;;;;-141.28;100.00;47742.28;5082026;28;20232;-75
2022/09/27 06:08:22;;;;;;;23.10;16.43;;;;;;;-141.28;100.00;47740.34;5071690;28;20196;-76
2022/09/27 06:10:48;;;;;;;21.60;16.33;;;;;;;-141.28;100.00;47744.25;5082716;28;20206;-77
2022/09/27 06:13:17;;;;;;;21.47;17.00;;;;;;;-141.28;100.00;47748.19;5078203;28;20302;-76
2022/09/27 06:15:46;;;;;;;21.43;16.93;;;;;;;-141.28;100.00;47752.09;5080609;28;20222;-75
2022/09/27 06:18:16;;;;;;;22.77;17.60;;;;;;;-141.28;100.00;47744.25;5076300;28;20203;-76
2022/09/27 06:20:43;;;;;;;26.87;18.47;;;;;;;-141.28;100.00;47746.22;5080119;28;20204;-75
2022/09/27 06:23:11;;;;;;;24.40;17.60;;;;;;;-141.28;100.00;47738.38;5077398;28;20191;-76
2022/09/27 06:25:40;;;;;;;23.30;17.40;;;;;;;-141.28;100.00;47736.41;5091925;28;20310;-75
2022/09/27 06:28:09;;;;;;;30.30;18.90;;;;;;;-141.28;100.00;47744.25;5097922;28;20191;-76
2022/09/27 06:30:39;;;;;;;27.53;21.50;;;;;;;-141.28;100.00;47746.22;5099208;28;20211;-76
2022/09/27 06:33:06;;;;;;;27.53;21.20;;;;;;;-141.28;100.00;47740.34;5091903;28;20250;-76
2022/09/27 06:35:35;;;;;;;25.60;19.43;;;;;;;-141.28;100.00;47740.34;5090111;28;20210;-77
2022/09/27 06:38:04;;;;;;;23.23;19.07;;;;;;;-141.28;100.00;47744.25;5091600;28;20280;-77
2022/09/27 06:40:31;;;;;;;22.93;18.63;;;;;;;-141.28;100.00;47738.38;5103979;28;20286;-77
2022/09/27 06:43:06;;;;;;;29.07;19.57;;;;;;;-141.28;100.00;47750.13;5090763;28;20267;-76
2022/09/27 06:45:35;;;;;;;23.87;18.80;;;;;;;-141.28;100.00;47744.25;5078739;28;20250;-76
2022/09/27 06:48:03;;;;;;;23.87;17.93;;;;;;;-141.28;100.00;47740.34;5104710;28;20244;-75
2022/09/27 06:50:34;;;;;;;23.53;16.47;;;;;;;-141.28;100.00;47744.25;5110920;28;20191;-75
2022/09/27 06:53:02;;;;;;;23.13;16.37;;;;;;;-141.28;100.00;47748.19;5096053;28;20219;-76
2022/09/27 06:55:30;;;;;;;20.83;16.37;;;;;;;-141.28;100.00;47748.19;5103603;28;20210;-76
2022/09/27 07:00:49;;;;;;;18.70;14.73;;;;;;;-141.28;100.00;47759.94;5110683;28;20236;-75
2022/09/27 07:03:17;;;;;;;17.33;14.33;;;;;;;-141.28;100.00;47748.19;5091151;28;20220;-79
2022/09/27 07:05:54;;;;;;;16.50;12.70;;;;;;;-141.28;100.00;47752.09;5103170;28;20214;-76
2022/09/27 07:08:22;;;;;;;14.90;13.30;;;;;;;-141.28;100.00;47763.88;5078654;28;20676;-75
2022/09/27 07:10:51;;;;;;;16.37;12.43;;;;;;;-141.28;100.00;47759.94;5090525;28;20203;-77
2022/09/27 07:13:20;;;;;;;16.03;12.50;;;;;;;-141.28;100.00;47765.81;5109074;28;20222;-77
2022/09/27 07:15:48;;;;;;;14.40;12.70;;;;;;;-141.28;100.00;47779.56;5092687;28;20278;-75
2022/09/27 07:18:15;;;;;;;17.77;14.03;;;;;;;-141.28;100.00;47781.50;5099070;28;20278;-75
2022/09/27 07:20:42;;;;;;;21.00;14.20;;;;;;;-141.28;100.00;47781.50;5108846;28;20199;-76
2022/09/27 07:23:10;;;;;;;20.33;14.17;;;;;;;-141.28;100.00;47791.31;5109962;28;20658;-76
2022/09/27 07:25:41;;;;;;;15.70;12.53;;;;;;;-141.28;100.00;47783.47;5104135;28;20568;-77
2022/09/27 07:28:13;;;;;;;18.67;14.50;;;;;;;-141.28;100.00;47783.47;5100789;28;20275;-76
2022/09/27 07:30:40;;;;;;;19.10;13.47;;;;;;;-141.28;100.00;47789.38;5100835;28;20196;-76
2022/09/27 07:33:09;;;;;;;21.17;13.50;;;;;;;-141.28;100.00;47795.25;5094214;28;20195;-79
2022/09/27 07:35:40;;;;;;;17.63;13.00;;;;;;;-141.28;100.00;47793.28;5101457;28;20214;-77
2022/09/27 07:38:09;;;;;;;16.77;13.47;;;;;;;-141.28;100.00;47795.25;5112090;28;20623;-76
2022/09/27 07:40:38;;;;;;;15.80;13.57;;;;;;;-141.28;100.00;47789.38;5109574;28;20206;-76
2022/09/27 07:43:08;;;;;;;17.73;13.33;;;;;;;-141.28;100.00;47787.41;5110785;28;20197;-76
2022/09/27 07:45:35;;;;;;;15.67;13.43;;;;;;;-141.28;100.00;47779.56;5085359;28;20225;-75
2022/09/27 07:48:04;;;;;;;20.33;13.97;;;;;;;-141.28;100.00;47775.63;5111399;28;20203;-76
2022/09/27 07:50:33;;;;;;;18.03;13.97;;;;;;;-141.28;100.00;47775.63;5113887;28;20220;-77
2022/09/27 07:53:00;;;;;;;17.50;13.33;;;;;;;-141.28;100.00;47771.72;5113274;28;20231;-77
2022/09/27 07:55:29;;;;;;;19.43;13.63;;;;;;;-141.28;100.00;47771.72;5113518;28;20202;-76
2022/09/27 07:58:03;;;;;;;16.00;12.97;;;;;;;-141.28;100.00;47767.78;5098971;28;20191;-76
2022/09/27 08:00:30;;;;;;;16.20;12.93;;;;;;;-141.28;100.00;47763.88;5113598;28;20721;-78
2022/09/27 08:02:57;;;;;;;16.63;14.27;;;;;;;-141.28;100.00;47767.78;5108717;28;21803;-79
2022/09/27 08:05:25;;;;;;;17.90;13.03;;;;;;;-141.28;100.00;47765.81;5093344;28;20219;-77
2022/09/27 08:07:56;;;;;;;19.17;13.73;;;;;;;-141.28;100.00;47767.78;5109495;28;20195;-76
2022/09/27 08:10:29;;;;;;;20.40;14.23;;;;;;;-141.28;100.00;47775.63;5113719;28;20282;-79
2022/09/27 08:12:56;;;;;;;20.80;15.07;;;;;;;-141.28;100.00;47771.72;5112474;28;20219;-76
2022/09/27 08:15:23;;;;;;;19.57;14.97;;;;;;;-141.28;100.00;47767.78;5114283;28;20207;-76
2022/09/27 08:17:51;;;;;;;17.63;14.63;;;;;;;-141.28;100.00;47765.81;5107449;28;20279;-77
2022/09/27 08:20:18;;;;;;;17.77;14.77;;;;;;;-141.28;100.00;47763.88;5093352;28;20199;-77
2022/09/27 08:22:46;;;;;;;20.50;15.47;;;;;;;-141.28;100.00;47767.78;5113044;28;20282;-77
2022/09/27 08:25:15;;;;;;;17.47;13.70;;;;;;;-141.28;100.00;47759.94;5113367;28;20206;-76
2022/09/27 08:27:42;;;;;;;19.57;12.47;;;;;;;-141.28;100.00;47767.78;5080686;28;20202;-77
2022/09/27 08:30:10;;;;;;;15.90;12.73;;;;;;;-141.28;100.00;47752.09;5093057;28;20579;-76
2022/09/27 08:32:38;;;;;;;17.23;12.57;;;;;;;-141.28;100.00;47757.97;5101114;28;20199;-77
2022/09/27 08:35:14;;;;;;;14.50;11.63;;;;;;;-141.28;100.00;47759.94;5112802;28;20282;-75
2022/09/27 08:37:42;;;;;;;19.70;12.60;;;;;;;-141.28;100.00;47763.88;5105097;28;20199;-77
2022/09/27 08:40:16;;;;;;;18.93;12.63;;;;;;;-141.28;100.00;47763.88;5090826;28;20210;-77
2022/09/27 08:42:58;;;;;;;16.33;12.17;;;;;;;-141.28;100.00;47759.94;5073989;28;20283;-77
2022/09/27 08:45:33;;;;;;;14.20;10.83;;;;;;;-141.28;100.00;47763.88;5073460;28;20224;-76
2022/09/27 08:48:05;;;;;;;17.23;11.63;;;;;;;-141.28;100.00;47773.66;5086212;28;20195;-78
2022/09/27 08:50:35;;;;;;;17.77;12.80;;;;;;;-141.28;100.00;47775.63;5088837;28;20199;-77
2022/09/27 08:53:07;;;;;;;12.93;10.83;;;;;;;-141.28;100.00;47783.47;5097221;28;20265;-78
2022/09/27 08:55:39;;;;;;;14.23;10.57;;;;;;;-141.28;100.00;47779.56;5073103;28;20658;-76
2022/09/27 08:58:17;;;;;;;14.67;10.77;;;;;;;-141.28;100.00;47803.09;5074328;28;20611;-75
2022/09/27 09:00:45;;;;;;;15.33;12.10;;;;;;;-141.28;100.00;47799.16;5072826;28;20269;-77
2022/09/27 09:03:19;;;;;;;16.27;12.20;;;;;;;-141.28;100.00;47803.09;5077768;28;20203;-75
2022/09/27 09:06:11;;;;;;;19.03;12.57;;;;;;;-141.28;100.00;47803.09;5097169;28;20229;-76
2022/09/27 09:08:50;;;;;;;16.00;12.40;;;;;;;-141.28;100.00;47818.78;5094497;28;20199;-78
2022/09/27 09:14:33;;;;;;;19.87;13.07;;;;;;;-141.28;100.00;47850.16;5094256;28;20606;-77
2022/09/27 09:17:11;;;;;;;18.50;13.93;;;;;;;-141.28;100.00;47846.25;5082114;28;20291;-75
2022/09/27 09:19:53;;;;;;;18.33;15.70;;;;;;;-141.28;100.00;47830.56;5080520;28;20196;-78
2022/09/27 09:22:37;;;;;;;17.93;15.67;;;;;;;-141.28;100.00;47826.63;5081219;28;20207;-76
2022/09/27 09:25:20;;;;;;;18.67;15.50;;;;;;;-141.28;100.00;47838.41;5085995;28;20206;-76
2022/09/27 09:27:57;;;;;;;20.67;16.60;;;;;;;-141.28;100.00;47834.47;5075278;28;20609;-77
2022/09/27 09:30:36;;;;;;;19.50;15.60;;;;;;;-141.28;100.00;47834.47;5075874;28;20340;-76
2022/09/27 09:33:25;;;;;;;20.67;15.40;;;;;;;-141.28;100.00;47850.16;5083849;28;20195;-76
2022/09/27 09:35:59;;;;;;;18.43;14.23;;;;;;;-141.28;100.00;47828.59;5067386;28;20637;-75
2022/09/27 09:38:37;;;;;;;13.67;11.47;;;;;;;-141.28;100.00;47836.44;5085947;28;20207;-75
2022/09/27 09:41:13;;;;;;;13.47;10.37;;;;;;;-141.28;100.00;47844.28;5072971;28;20272;-74
2022/09/27 09:43:47;;;;;;;13.33;11.87;;;;;;;-141.28;100.00;47858.00;5072614;28;20199;-76
2022/09/27 09:46:21;;;;;;;15.23;12.40;;;;;;;-141.28;100.00;47856.03;5085330;28;20306;-75
2022/09/27 09:48:55;;;;;;;14.37;11.97;;;;;;;-141.28;100.00;47865.84;5072216;28;20701;-77
2022/09/27 09:51:27;;;;;;;12.83;11.17;;;;;;;-141.28;100.00;47863.91;5072356;28;20215;-77
2022/09/27 09:53:58;;;;;;;15.60;10.33;;;;;;;-141.28;100.00;47881.53;5072701;28;20197;-74
2022/09/27 09:56:31;;;;;;;12.87;10.37;;;;;;;-141.28;100.00;47881.53;5089371;28;20200;-77
2022/09/27 09:59:01;;;;;;;16.50;11.77;;;;;;;-141.28;100.00;47885.47;5092041;28;20218;-76
2022/09/27 10:01:35;;;;;;;12.50;10.53;;;;;;;-141.28;100.00;47885.47;5073524;28;20607;-76
2022/09/27 10:04:02;;;;;;;13.03;10.63;;;;;;;-141.28;100.00;47883.50;5071509;28;20636;-75
2022/09/27 10:06:31;;;;;;;14.93;12.50;;;;;;;-141.28;100.00;47875.66;5084799;28;20234;-76
2022/09/27 10:08:58;;;;;;;15.77;13.17;;;;;;;-141.28;100.00;47877.63;5071556;28;20642;-76
2022/09/27 10:11:28;;;;;;;16.20;13.17;;;;;;;-141.28;100.00;47865.84;5084082;28;21044;-75
2022/09/27 10:13:55;;;;;;;18.33;14.60;;;;;;;-141.28;100.00;47861.94;5072098;28;20257;-76
2022/09/27 10:16:24;;;;;;;17.40;15.13;;;;;;;-141.28;100.00;47861.94;5099664;28;20281;-76
2022/09/27 10:18:57;;;;;;;15.67;12.63;;;;;;;-141.28;100.00;47865.84;5109646;28;20606;-75
2022/09/27 10:21:28;;;;;;;13.07;11.70;;;;;;;-141.28;100.00;47861.94;5100410;28;20194;-76
2022/09/27 10:24:10;;;;;;;16.03;11.53;;;;;;;-141.28;100.00;47893.31;5091544;28;20571;-75
2022/09/27 10:26:41;;;;;;;18.17;11.83;;;;;;;-141.28;100.00;47885.47;5083840;28;20627;-77
2022/09/27 10:29:24;;;;;;;12.83;10.10;;;;;;;-141.28;100.00;47901.16;5097454;28;20213;-75
2022/09/27 10:31:56;;;;;;;12.00;9.77;;;;;;;-141.28;100.00;47924.69;5090012;28;20195;-75
2022/09/27 10:34:31;;;;;;;12.87;9.10;;;;;;;-141.28;100.00;47920.78;5104759;28;20199;-76
2022/09/27 10:37:19;;;;;;;10.33;9.30;;;;;;;-141.28;100.00;47950.19;5071339;28;20204;-75
2022/09/27 10:39:49;;;;;;;11.80;9.10;;;;;;;-141.28;100.00;47952.16;5088010;28;20252;-76
2022/09/27 10:42:33;;;;;;;11.00;9.80;;;;;;;-141.28;100.00;47967.84;5095036;28;20203;-76
2022/09/27 10:45:26;;;;;;;14.20;10.63;;;;;;;-141.28;100.00;47987.47;5091615;28;20227;-80
2022/09/27 10:47:55;;;;;;;13.07;9.80;;;;;;;-141.28;100.00;47963.94;5092490;28;20223;-77
2022/09/27 10:50:27;;;;;;;17.73;10.37;;;;;;;-141.28;100.00;47940.38;5089909;28;20203;-76
2022/09/27 10:53:10;;;;;;;16.43;12.97;;;;;;;-141.28;100.00;47940.38;5082297;28;20219;-76
2022/09/27 10:55:41;;;;;;;17.17;12.47;;;;;;;-141.28;100.00;47914.88;5090952;28;20206;-74
2022/09/27 10:58:22;;;;;;;16.47;12.20;;;;;;;-141.28;100.00;47905.09;5093280;28;20561;-77
2022/09/27 11:01:02;;;;;;;14.00;11.30;;;;;;;-141.28;100.00;47926.66;5072578;28;20655;-77
2022/09/27 11:03:32;;;;;;;16.63;11.77;;;;;;;-141.28;100.00;47909.00;5089206;28;20199;-74
2022/09/27 11:06:00;;;;;;;11.60;10.33;;;;;;;-141.28;100.00;47903.13;5092503;28;20206;-76
2022/09/27 11:08:34;;;;;;;15.10;11.93;;;;;;;-141.28;100.00;47905.09;5079678;28;20203;-77
2022/09/27 11:11:06;;;;;;;16.13;12.17;;;;;;;-141.28;100.00;47897.25;5092052;28;20207;-75
2022/09/27 11:13:36;;;;;;;11.87;10.60;;;;;;;-141.28;100.00;47883.50;5092087;28;20223;-78
2022/09/27 11:16:28;;;;;;;15.60;11.23;;;;;;;-141.28;100.00;47905.09;5079397;28;20199;-75
2022/09/27 11:19:06;;;;;;;16.70;11.57;;;;;;;-141.28;100.00;47910.97;5073114;28;20201;-77
2022/09/27 11:21:44;;;;;;;15.80;11.87;;;;;;;-141.28;100.00;47916.84;5084841;28;20623;-75
2022/09/27 11:24:38;;;;;;;10.90;9.77;;;;;;;-141.28;100.00;47944.31;5091966;28;20585;-75
2022/09/27 11:27:15;;;;;;;12.10;9.33;;;;;;;-141.28;100.00;47950.19;5079206;28;20232;-76